Estación Meteorológica Peña el Pijo (Robertgarden) [ 12/17/17 01:30:34 CET ]

Fecha Hora Presion(HPa) Temp (°C) Humedad % Rocio (°C) Viento ( m/s) Direccion Lluvia 1Hora(mm) Lluvia 24H(mm) LLuvia Total(mm)
2017-Oct-07 01:01:35 1013.000 9.5 48 -1.0         1457.65
2017-Oct-07 02:01:26 1013.100 9.1 46 -2.0         1457.65
2017-Oct-07 03:01:37 1012.900 7.9 49 -2.2         1457.65
2017-Oct-07 04:01:39 1012.800 6.4 55 -2.0         1457.65
2017-Oct-07 05:05:09 1012.900 5.6 59 -1.8         1457.65
2017-Oct-07 06:01:37 1012.900 5.3 59 -2.1         1457.65
2017-Oct-07 07:01:26 1012.900 5.0 61 -1.9         1457.65
2017-Oct-07 08:01:23 1013.200 4.4 65 -1.6         1457.65
2017-Oct-07 09:01:38 1013.300 4.2 67 -1.4         1457.65
2017-Oct-07 10:02:05 1013.700 14.3 53 4.8         1457.65
2017-Oct-07 11:01:43 1013.800 21.4 40 7.3         1457.65
2017-Oct-07 12:01:50 1013.600 25.4 38 10.0         1457.65
2017-Oct-07 13:01:49 1013.600 25.6 38 10.2         1457.65
2017-Oct-07 14:02:05 1013.300 25.3 39 10.3         1457.65
2017-Oct-07 15:01:48 1012.800 25.8 39 10.8         1457.65
2017-Oct-07 16:01:38 1012.500 25.8 38 10.4         1457.65
2017-Oct-07 17:01:49 1012.100 24.8 41 10.7         1457.65
2017-Oct-07 18:01:58 1012.100 23.3 43 10.0         1457.65
2017-Oct-07 19:01:42 1012.500 20.7 49 9.6 1.9 SSE     1457.65
2017-Oct-07 20:01:47 1013.000 18.2 60 10.3 0.8 S     1457.65
2017-Oct-07 21:01:56 1013.400 16.6 67 10.4         1457.65
2017-Oct-07 22:01:53 1013.800 15.9 70 10.5         1457.65
2017-Oct-07 23:01:38 1014.200 13.9 72 8.9         1457.65

Temperatura Máxima:25°    Temperatura Mínima:
Presión Máxima:1014.200 Hpa    Presión Mínima:1012.100 Hpa


Volver